Time;durP1;ratioP1;P1;durP2;ratioP2;P2;SDS_P1;SDS_P2;PMS_P1;PMS_P2;Temp;Humidity;BMP_temperature;BMP_pressure;BME280_temperature;BME280_humidity;BME280_pressure;Samples;Min_cycle;Max_cycle;Signal;HPM_P1;HPM_P2
2022/06/01 00:06:38;;;;;;;630.60;116.43;;;14.20;99.90;20.50;99185.00;;;;5006314;27;1612617;-61
2022/06/01 00:09:04;;;;;;;816.72;134.60;;;14.20;99.90;20.90;99191.00;;;;5045962;27;85523;-63
2022/06/01 00:11:31;;;;;;;669.90;104.88;;;14.30;99.90;20.40;99181.00;;;;5065063;27;86172;-63
2022/06/01 00:13:57;;;;;;;786.92;106.03;;;14.20;99.90;20.40;99178.00;;;;5064178;27;85982;-63
2022/06/01 00:16:23;;;;;;;719.65;117.05;;;14.30;99.90;20.60;99175.00;;;;5064355;27;86234;-63
2022/06/01 00:18:49;;;;;;;732.63;101.53;;;14.30;99.90;20.00;99182.00;;;;5063731;27;85120;-63
2022/06/01 00:21:15;;;;;;;898.08;118.25;;;14.30;99.90;20.00;99182.00;;;;5063285;27;85634;-63
2022/06/01 00:23:42;;;;;;;649.25;99.43;;;14.30;99.90;19.90;99180.00;;;;5063796;27;86233;-63
2022/06/01 00:26:08;;;;;;;803.78;129.30;;;14.20;99.90;19.80;99185.00;;;;5066063;27;85222;-63
2022/06/01 00:28:34;;;;;;;1333.97;154.38;;;14.20;99.90;20.50;99188.00;;;;5063770;27;86083;-62
2022/06/01 00:31:01;;;;;;;573.58;82.03;;;14.20;99.90;20.80;99191.00;;;;5064685;27;85308;-63
2022/06/01 00:33:27;;;;;;;670.10;94.22;;;14.20;99.90;20.80;99191.00;;;;5065428;27;83803;-62
2022/06/01 00:35:53;;;;;;;702.05;105.78;;;14.20;99.90;20.70;99196.00;;;;5064306;27;83389;-62
2022/06/01 00:38:21;;;;;;;1333.07;168.43;;;14.30;99.90;20.60;99204.00;;;;5064591;27;85139;-62
2022/06/01 00:40:48;;;;;;;551.25;90.38;;;14.30;99.90;20.10;99184.00;;;;5065180;27;85293;-62
2022/06/01 00:43:44;;;;;;;1339.05;167.45;;;14.20;99.90;20.30;99204.00;;;;5065998;27;83442;-63
2022/06/01 00:46:12;;;;;;;314.92;87.35;;;14.30;99.90;20.70;99206.00;;;;5056827;27;85770;-62
2022/06/01 00:48:49;;;;;;;385.10;97.18;;;14.30;99.90;21.30;99194.00;;;;5050775;27;82900;-63
2022/06/01 00:51:21;;;;;;;421.02;100.32;;;14.30;99.90;21.10;99211.00;;;;5035254;27;83215;-63
2022/06/01 00:53:50;;;;;;;291.55;84.65;;;14.30;99.90;21.20;99198.00;;;;5032852;27;86199;-64
2022/06/01 00:56:25;;;;;;;279.70;85.82;;;14.30;99.90;21.00;99209.00;;;;5033922;27;85509;-63
2022/06/01 00:58:55;;;;;;;218.23;76.93;;;14.30;99.90;21.30;99200.00;;;;5052275;27;82668;-63
2022/06/01 01:01:23;;;;;;;196.35;80.72;;;14.30;99.90;21.00;99210.00;;;;5052796;27;83398;-62
2022/06/01 01:03:56;;;;;;;140.80;68.65;;;14.30;99.90;20.50;99209.00;;;;5052099;27;83421;-63
2022/06/01 01:06:36;;;;;;;158.30;74.35;;;14.30;99.90;21.20;99209.00;;;;5049715;27;83704;-63
2022/06/01 01:09:04;;;;;;;135.30;74.53;;;14.30;99.90;20.60;99207.00;;;;5029995;28;84730;-64
2022/06/01 01:11:53;;;;;;;161.85;79.03;;;14.30;99.90;21.10;99213.00;;;;5029855;28;83388;-63
2022/06/01 01:14:26;;;;;;;160.40;82.60;;;14.30;99.90;21.20;99219.00;;;;5029293;28;84579;-63
2022/06/01 01:16:52;;;;;;;169.98;83.85;;;14.40;99.90;21.00;99220.00;;;;5029446;28;83802;-63
2022/06/01 01:19:42;;;;;;;146.25;74.90;;;14.40;99.90;21.40;99220.00;;;;5030420;27;83476;-64
2022/06/01 01:22:26;;;;;;;144.68;79.78;;;14.40;99.90;20.70;99215.00;;;;5030715;28;84098;-64
2022/06/01 01:25:16;;;;;;;145.43;75.82;;;14.30;99.90;20.70;99218.00;;;;5030852;28;83372;-60
2022/06/01 01:27:46;;;;;;;126.80;69.95;;;14.30;99.90;20.80;99217.00;;;;5030066;28;83436;-59
2022/06/01 01:30:37;;;;;;;136.15;82.43;;;14.30;99.90;21.00;99221.00;;;;5031869;28;83670;-59
2022/06/01 01:33:28;;;;;;;128.65;78.00;;;14.30;99.90;21.00;99223.00;;;;5031115;28;83238;-59
2022/06/01 01:36:09;;;;;;;99.85;69.05;;;14.30;99.90;20.40;99219.00;;;;5024756;28;83238;-60
2022/06/01 01:39:07;;;;;;;98.40;69.78;;;14.30;99.90;20.50;99226.00;;;;5031617;28;83935;-58
2022/06/01 01:41:48;;;;;;;94.28;69.13;;;14.30;99.90;20.60;99217.00;;;;5031316;28;83323;-58
2022/06/01 01:44:17;;;;;;;95.70;67.80;;;14.30;99.90;21.20;99219.00;;;;5030633;28;82674;-58
2022/06/01 01:46:47;;;;;;;74.95;61.58;;;14.40;99.90;20.70;99220.00;;;;5030826;28;83625;-60
2022/06/01 01:49:34;;;;;;;89.63;67.28;;;14.30;99.90;21.10;99221.00;;;;5030780;28;83509;-60
2022/06/01 01:52:06;;;;;;;86.10;63.25;;;14.30;99.90;21.40;99223.00;;;;5031358;28;83781;-59
2022/06/01 01:55:00;;;;;;;80.75;62.22;;;14.40;99.90;21.40;99227.00;;;;5029316;28;83093;-60
2022/06/01 01:58:12;;;;;;;83.20;62.03;;;14.40;99.90;21.50;99223.00;;;;5029138;28;83717;-59
2022/06/01 02:00:48;;;;;;;83.72;65.47;;;14.40;99.90;21.40;99216.00;;;;5030494;28;83381;-59
2022/06/01 02:03:28;;;;;;;90.03;65.28;;;14.40;99.90;21.90;99222.00;;;;5029756;28;83223;-59
2022/06/01 02:06:39;;;;;;;85.80;66.05;;;14.50;99.90;21.90;99225.00;;;;5031387;28;82564;-59
2022/06/01 02:09:09;;;;;;;87.88;66.60;;;14.60;99.90;21.90;99228.00;;;;4990914;28;83512;-60
2022/06/01 02:14:55;;;;;;;99.43;69.75;;;14.80;99.90;22.20;99224.00;;;;5029410;28;83687;-60
2022/06/01 02:17:51;;;;;;;99.60;69.82;;;14.80;99.90;21.70;99232.00;;;;5028057;28;83890;-60
2022/06/01 02:20:33;;;;;;;102.30;70.50;;;14.80;99.90;22.10;99228.00;;;;5029987;28;83716;-59
2022/06/01 02:23:00;;;;;;;105.30;69.90;;;14.80;99.90;22.30;99219.00;;;;5028832;28;83317;-60
2022/06/01 02:25:29;;;;;;;92.35;66.13;;;14.90;99.90;22.00;99221.00;;;;5029935;28;83612;-60
2022/06/01 02:27:57;;;;;;;97.07;68.25;;;14.90;99.90;22.40;99224.00;;;;5029480;28;83055;-61
2022/06/01 02:30:33;;;;;;;90.95;64.82;;;15.00;99.90;22.30;99227.00;;;;5028417;28;83636;-60
2022/06/01 02:33:05;;;;;;;83.28;65.43;;;15.10;99.90;22.40;99225.00;;;;5029146;28;83821;-60
2022/06/01 02:35:36;;;;;;;84.88;61.70;;;15.10;99.90;22.60;99224.00;;;;5011993;28;83806;-60
2022/06/01 02:38:05;;;;;;;;;;;15.20;99.90;23.30;99219.00;;;;5029262;28;83265;-60
2022/06/01 02:40:31;;;;;;;69.80;54.83;;;15.40;99.90;23.00;99225.00;;;;5030370;28;82369;-60
2022/06/01 02:42:58;;;;;;;67.88;50.10;;;15.60;99.90;23.20;99225.00;;;;5027451;28;82782;-60
2022/06/01 02:45:27;;;;;;;63.78;46.65;;;15.60;99.90;23.40;99218.00;;;;5029097;28;82671;-60
2022/06/01 02:47:56;;;;;;;62.92;48.03;;;15.70;99.90;23.20;99227.00;;;;5028428;28;82974;-61
2022/06/01 02:50:26;;;;;;;62.70;48.78;;;15.80;99.90;23.30;99225.00;;;;5027046;28;82856;-60
2022/06/01 02:52:53;;;;;;;70.25;49.45;;;15.90;99.90;23.10;99230.00;;;;5028135;28;84159;-60
2022/06/01 02:55:21;;;;;;;57.58;44.25;;;15.90;99.90;23.40;99224.00;;;;5029693;28;83144;-60
2022/06/01 02:57:49;;;;;;;50.17;40.17;;;16.10;99.90;23.70;99224.00;;;;5030277;28;83932;-60
2022/06/01 03:00:24;;;;;;;53.03;42.63;;;16.40;99.90;23.90;99213.00;;;;5029738;28;83386;-60
2022/06/01 03:02:57;;;;;;;50.63;41.03;;;16.60;99.90;23.90;99221.00;;;;5029177;28;83230;-60
2022/06/01 03:05:28;;;;;;;63.92;46.55;;;16.60;99.90;22.80;99229.00;;;;5029727;28;83218;-60
2022/06/01 03:07:55;;;;;;;;;;;16.30;99.90;23.00;99230.00;;;;5038347;27;83851;-60
2022/06/01 03:10:22;;;;;;;61.95;46.10;;;16.20;99.90;23.20;99237.00;;;;5033917;27;82127;-60
2022/06/01 03:12:49;;;;;;;68.03;48.15;;;16.20;99.90;23.10;99232.00;;;;5050047;27;82732;-60
2022/06/01 03:15:18;;;;;;;64.18;48.33;;;16.10;99.90;23.30;99231.00;;;;5047965;27;83171;-60
2022/06/01 03:17:45;;;;;;;64.10;48.13;;;16.20;99.90;23.40;99235.00;;;;5046863;27;83529;-60
2022/06/01 03:20:15;;;;;;;71.97;50.72;;;16.30;99.90;23.50;99222.00;;;;5049810;27;83455;-60
2022/06/01 03:22:43;;;;;;;74.05;52.17;;;16.30;99.90;23.30;99229.00;;;;5048603;27;83239;-60
2022/06/01 03:25:17;;;;;;;64.60;48.05;;;16.30;99.90;23.30;99230.00;;;;5030634;27;83762;-59
2022/06/01 03:27:44;;;;;;;73.22;50.72;;;16.40;99.90;23.60;99232.00;;;;5048621;27;83170;-59
2022/06/01 03:30:15;;;;;;;67.90;49.88;;;16.40;99.90;23.70;99235.00;;;;5049404;27;83645;-59
2022/06/01 03:32:43;;;;;;;60.53;47.10;;;16.30;99.90;23.70;99236.00;;;;5049627;27;83084;-59
2022/06/01 03:35:13;;;;;;;68.10;49.90;;;16.50;99.90;23.40;99234.00;;;;5049085;27;83776;-59
2022/06/01 03:37:39;;;;;;;61.85;49.85;;;16.50;99.90;23.80;99242.00;;;;5047664;27;83032;-60
2022/06/01 03:40:06;;;;;;;68.72;51.03;;;16.60;99.90;24.20;99241.00;;;;5048819;27;83463;-60
2022/06/01 03:42:33;;;;;;;63.38;47.92;;;16.70;99.90;24.40;99241.00;;;;5048709;27;83782;-59
2022/06/01 03:47:45;;;;;;;70.65;51.35;;;16.60;99.90;23.30;99241.00;;;;5048105;27;82639;-59
2022/06/01 03:50:13;;;;;;;65.90;48.58;;;16.70;99.90;23.60;99246.00;;;;5049463;27;83460;-60
2022/06/01 03:52:39;;;;;;;73.72;51.88;;;16.70;99.90;23.70;99246.00;;;;5048756;27;82813;-60
2022/06/01 03:55:08;;;;;;;62.42;51.60;;;16.80;99.90;23.20;99243.00;;;;5048184;27;83654;-60
2022/06/01 03:57:36;;;;;;;59.60;48.65;;;16.80;99.90;23.20;99244.00;;;;5047338;27;82881;-61
2022/06/01 04:00:07;;;;;;;62.05;49.08;;;16.70;99.90;24.20;99237.00;;;;5047837;27;83666;-60
2022/06/01 04:02:41;;;;;;;61.95;52.22;;;16.90;99.90;23.50;99239.00;;;;5048296;27;83473;-60
2022/06/01 04:05:08;;;;;;;56.45;47.20;;;16.80;99.90;24.60;99233.00;;;;5048062;27;83076;-59
2022/06/01 04:07:35;;;;;;;51.03;43.47;;;17.10;99.90;25.10;99231.00;;;;5047582;27;83671;-58
2022/06/01 04:10:01;;;;;;;52.53;46.38;;;17.60;99.90;24.40;99237.00;;;;5048028;27;83841;-60
2022/06/01 04:12:28;;;;;;;51.60;45.97;;;17.70;99.90;24.80;99227.00;;;;5047496;27;84109;-59
2022/06/01 04:14:54;;;;;;;52.58;43.15;;;17.90;99.90;25.70;99230.00;;;;5046527;27;82741;-59
2022/06/01 04:17:20;;;;;;;45.03;38.88;;;18.30;99.90;26.50;99241.00;;;;5046802;27;83346;-59
2022/06/01 04:19:46;;;;;;;49.17;39.38;;;19.00;99.90;27.10;99238.00;;;;5047034;27;83450;-59
2022/06/01 04:22:15;;;;;;;41.20;36.67;;;19.40;99.90;27.50;99228.00;;;;5048686;27;83792;-59
2022/06/01 04:24:41;;;;;;;41.17;36.22;;;19.80;99.90;28.00;99234.00;;;;5032819;27;82973;-59
2022/06/01 04:27:07;;;;;;;35.75;31.92;;;20.40;99.90;28.70;99238.00;;;;5049796;27;84418;-60
2022/06/01 04:29:34;;;;;;;39.88;32.65;;;21.00;99.90;29.20;99231.00;;;;5049890;27;83614;-58
2022/06/01 04:32:13;;;;;;;33.40;28.08;;;21.60;99.90;29.60;99243.00;;;;5051680;27;83140;-61
2022/06/01 04:34:39;;;;;;;34.15;28.40;;;22.20;99.90;30.80;99245.00;;;;5033652;27;83359;-58
2022/06/01 04:37:06;;;;;;;32.28;28.15;;;23.30;99.90;31.30;99240.00;;;;5050172;27;83254;-60
2022/06/01 04:39:33;;;;;;;33.78;28.17;;;23.60;99.90;29.70;99235.00;;;;5033628;27;83913;-59
2022/06/01 04:41:59;;;;;;;32.95;29.50;;;23.00;99.90;29.70;99245.00;;;;5033780;27;85474;-60
2022/06/01 04:44:26;;;;;;;32.00;28.48;;;22.90;99.90;29.80;99243.00;;;;5051510;27;82813;-60
2022/06/01 04:46:52;;;;;;;28.30;22.63;;;22.60;99.90;29.30;99255.00;;;;5052278;27;83375;-61
2022/06/01 04:49:18;;;;;;;22.05;17.60;;;22.30;99.90;28.90;99267.00;;;;5051453;27;83678;-60
2022/06/01 04:51:44;;;;;;;23.23;18.90;;;21.90;99.90;29.10;99262.00;;;;5052058;27;83018;-59
2022/06/01 04:54:10;;;;;;;22.05;18.63;;;21.90;99.90;29.40;99255.00;;;;5050736;27;83207;-61
2022/06/01 04:56:36;;;;;;;24.90;17.63;;;22.10;99.90;29.60;99248.00;;;;5052454;27;82812;-59
2022/06/01 04:59:02;;;;;;;21.27;18.20;;;22.30;99.90;29.60;99252.00;;;;5050376;27;83223;-62
2022/06/01 05:01:28;;;;;;;18.90;16.23;;;22.40;99.90;29.60;99253.00;;;;5000030;27;84480;-61
2022/06/01 05:03:54;;;;;;;24.30;17.25;;;22.30;99.90;28.20;99248.00;;;;5050582;27;83641;-60
2022/06/01 05:06:21;;;;;;;21.25;17.25;;;21.50;99.90;28.90;99251.00;;;;5051174;27;84034;-60
2022/06/01 05:08:47;;;;;;;20.90;17.48;;;21.60;99.90;28.50;99252.00;;;;5051484;27;83208;-60
2022/06/01 05:11:13;;;;;;;22.70;16.30;;;21.40;99.90;28.50;99242.00;;;;5050526;27;83523;-60
2022/06/01 05:13:39;;;;;;;22.80;16.90;;;21.30;99.90;28.60;99249.00;;;;5050589;27;83712;-59
2022/06/01 05:16:07;;;;;;;20.55;15.95;;;21.40;99.90;29.00;99236.00;;;;5049588;27;82786;-60
2022/06/01 05:18:33;;;;;;;16.90;12.23;;;21.50;99.90;29.80;99241.00;;;;5049623;27;83373;-60
2022/06/01 05:20:59;;;;;;;15.60;12.30;;;22.50;99.90;31.10;99238.00;;;;5050437;27;84165;-59
2022/06/01 05:23:26;;;;;;;14.90;10.98;;;23.20;99.90;31.60;99241.00;;;;5032366;27;84635;-60
2022/06/01 05:25:54;;;;;;;11.07;9.68;;;24.00;99.90;32.20;99239.00;;;;5051048;27;82809;-60
2022/06/01 05:28:25;;;;;;;18.92;12.85;;;24.60;99.90;32.50;99228.00;;;;5017717;27;82519;-61
2022/06/01 05:31:00;;;;;;;17.85;11.90;;;24.90;99.90;32.00;99231.00;;;;5050253;27;83768;-59
2022/06/01 05:33:27;;;;;;;15.60;12.68;;;24.80;99.90;31.90;99233.00;;;;5051453;27;83435;-61
2022/06/01 05:35:53;;;;;;;14.25;8.68;;;24.60;99.90;31.60;99233.00;;;;5050310;27;83155;-60
2022/06/01 05:38:19;;;;;;;10.32;8.75;;;24.50;99.90;31.30;99230.00;;;;5050586;27;83074;-59
2022/06/01 05:40:46;;;;;;;11.32;7.05;;;24.00;99.90;31.60;99233.00;;;;5052065;27;82916;-59
2022/06/01 05:43:15;;;;;;;10.15;7.22;;;24.10;99.90;31.40;99220.00;;;;5051813;27;82283;-60
2022/06/01 05:45:41;;;;;;;11.55;7.45;;;24.20;99.90;31.60;99222.00;;;;5051629;27;82699;-60
2022/06/01 05:48:10;;;;;;;14.25;8.48;;;24.30;99.90;32.10;99224.00;;;;5051762;27;82417;-60
2022/06/01 05:50:36;;;;;;;12.68;6.93;;;24.70;99.90;32.30;99225.00;;;;5050919;27;82958;-60
2022/06/01 05:53:02;;;;;;;11.15;6.95;;;24.80;99.90;32.40;99231.00;;;;5050954;27;82851;-60
2022/06/01 05:55:29;;;;;;;10.07;6.68;;;25.20;99.90;31.80;99223.00;;;;5051621;27;83514;-60
2022/06/01 05:57:55;;;;;;;9.45;7.15;;;24.80;99.90;31.20;99226.00;;;;5050705;27;83295;-61
2022/06/01 06:00:22;;;;;;;10.88;7.15;;;24.20;99.90;31.50;99227.00;;;;5051807;27;82064;-61
2022/06/01 06:02:48;;;;;;;11.52;7.25;;;24.40;99.90;32.00;99233.00;;;;5051461;27;82715;-60
2022/06/01 06:07:59;;;;;;;9.13;7.05;;;25.00;99.90;31.80;99224.00;;;;5033328;27;82106;-63
2022/06/01 06:10:27;;;;;;;9.05;6.40;;;24.50;99.90;31.90;99228.00;;;;5051414;27;82788;-63
2022/06/01 06:12:54;;;;;;;9.40;6.93;;;24.70;99.90;31.60;99225.00;;;;5051703;27;82350;-63
2022/06/01 06:15:21;;;;;;;11.98;6.55;;;24.60;99.90;31.40;99226.00;;;;5048884;27;83511;-63
2022/06/01 06:17:47;;;;;;;10.27;5.30;;;24.50;99.90;30.20;99229.00;;;;5048704;27;83028;-63
2022/06/01 06:20:14;;;;;;;12.88;5.75;;;23.90;99.90;30.50;99213.00;;;;5015643;27;84067;-63
2022/06/01 06:22:41;;;;;;;11.65;6.57;;;23.70;99.90;30.40;99217.00;;;;5050090;27;82807;-63
2022/06/01 06:25:08;;;;;;;11.18;6.38;;;23.60;99.90;30.30;99217.00;;;;5050633;27;83110;-63
2022/06/01 06:27:34;;;;;;;12.80;6.22;;;23.50;99.90;30.20;99216.00;;;;5050887;27;82965;-63
2022/06/01 06:30:00;;;;;;;11.82;6.45;;;23.30;99.90;29.80;99212.00;;;;5050502;27;82437;-63
2022/06/01 06:32:28;;;;;;;14.50;6.65;;;23.10;99.90;29.70;99219.00;;;;5050983;27;82305;-64
2022/06/01 06:34:55;;;;;;;12.10;6.30;;;22.80;99.90;29.20;99216.00;;;;5050758;27;82804;-63
2022/06/01 06:37:21;;;;;;;11.23;6.90;;;22.60;99.90;28.90;99211.00;;;;5050796;27;84501;-62
2022/06/01 06:39:47;;;;;;;11.60;6.03;;;22.20;99.90;28.90;99220.00;;;;5050242;27;82828;-64
2022/06/01 06:42:13;;;;;;;11.30;6.53;;;22.20;99.90;29.10;99219.00;;;;5050836;27;83041;-63
2022/06/01 06:44:39;;;;;;;14.75;6.95;;;22.30;99.90;28.90;99214.00;;;;5049479;27;83617;-65
2022/06/01 06:47:05;;;;;;;14.45;6.68;;;22.20;99.90;28.90;99210.00;;;;5051554;27;83219;-63
2022/06/01 06:49:32;;;;;;;10.65;6.63;;;22.20;99.90;28.40;99213.00;;;;5050253;27;83138;-64
2022/06/01 06:51:58;;;;;;;13.90;6.65;;;22.10;99.90;28.30;99203.00;;;;5033115;27;83494;-63
2022/06/01 06:54:27;;;;;;;11.45;6.95;;;22.10;99.90;28.20;99199.00;;;;5050491;27;82627;-64
2022/06/01 06:56:53;;;;;;;13.45;6.75;;;22.00;99.90;28.40;99199.00;;;;5050188;27;82561;-64
2022/06/01 06:59:19;;;;;;;10.73;6.78;;;22.00;99.90;27.60;99204.00;;;;5050164;27;82397;-64
2022/06/01 07:01:45;;;;;;;12.55;6.57;;;21.60;99.90;27.60;99210.00;;;;5050830;27;82443;-65
2022/06/01 07:04:11;;;;;;;12.00;7.85;;;21.70;99.90;27.60;99205.00;;;;5050633;27;83256;-64
2022/06/01 07:06:37;;;;;;;11.93;6.43;;;21.50;99.90;28.30;99209.00;;;;5050280;27;82649;-64
2022/06/01 07:09:03;;;;;;;13.38;7.00;;;21.70;99.90;28.50;99209.00;;;;5049734;27;82960;-63
2022/06/01 07:11:31;;;;;;;10.95;7.10;;;21.80;99.90;27.70;99205.00;;;;5049301;27;82803;-63
2022/06/01 07:13:58;;;;;;;16.48;7.78;;;21.70;99.90;27.80;99206.00;;;;5050242;27;82793;-63
2022/06/01 07:16:28;;;;;;;11.00;7.15;;;21.70;99.90;28.40;99206.00;;;;5046525;27;82884;-63
2022/06/01 07:18:58;;;;;;;8.25;5.10;;;21.80;99.90;28.30;99201.00;;;;5047776;27;82588;-64
2022/06/01 07:21:25;;;;;;;9.82;4.78;;;21.80;99.90;28.80;99201.00;;;;5049763;27;83771;-64
2022/06/01 07:23:52;;;;;;;9.70;4.60;;;21.90;99.90;28.90;99212.00;;;;5049708;27;82668;-64
2022/06/01 07:26:35;;;;;;;12.27;3.90;;;22.00;99.90;29.00;99212.00;;;;5050151;27;82526;-64
2022/06/01 07:29:02;;;;;;;8.27;4.38;;;22.20;99.90;28.80;99219.00;;;;5049998;27;82050;-63
2022/06/01 07:31:29;;;;;;;8.35;4.10;;;22.20;99.90;28.80;99217.00;;;;5049936;27;82616;-63
2022/06/01 07:33:58;;;;;;;10.23;4.32;;;22.20;99.90;28.90;99218.00;;;;5050058;27;83822;-65
2022/06/01 07:36:25;;;;;;;9.10;4.50;;;22.20;99.90;28.80;99219.00;;;;5049362;27;83286;-67
2022/06/01 07:44:52;;;;;;;7.35;3.60;;;22.50;99.90;29.30;99224.00;;;;5033962;27;82567;-61
2022/06/01 07:47:20;;;;;;;6.78;4.00;;;22.70;99.90;29.30;99209.00;;;;5050134;27;82596;-59
2022/06/01 07:49:47;;;;;;;9.68;4.15;;;22.60;99.90;29.00;99209.00;;;;5049534;27;82054;-59
2022/06/01 07:52:14;;;;;;;7.68;4.55;;;22.60;99.90;29.10;99213.00;;;;5050285;27;82394;-59
2022/06/01 07:54:42;;;;;;;10.68;4.35;;;22.60;99.90;29.30;99211.00;;;;5049078;27;82628;-59
2022/06/01 07:57:11;;;;;;;9.27;4.10;;;22.50;99.90;29.10;99214.00;;;;5050866;27;82601;-60
2022/06/01 07:59:37;;;;;;;11.18;4.32;;;22.50;99.90;29.60;99211.00;;;;5033293;27;83332;-59
2022/06/01 08:02:09;;;;;;;9.52;4.95;;;22.60;99.90;30.10;99208.00;;;;5052784;27;84524;-59
2022/06/01 08:04:37;;;;;;;8.32;3.95;;;23.00;99.90;30.60;99214.00;;;;5053144;27;82706;-60
2022/06/01 08:07:04;;;;;;;8.20;3.00;;;23.30;99.90;30.90;99218.00;;;;5035408;27;82446;-60
2022/06/01 08:09:31;;;;;;;6.93;3.33;;;23.50;99.90;30.60;99216.00;;;;5053266;27;82704;-60
2022/06/01 08:14:42;;;;;;;8.90;3.50;;;23.80;99.90;30.50;99216.00;;;;5052915;27;83110;-60
2022/06/01 08:17:08;;;;;;;6.97;3.10;;;23.70;99.90;31.10;99224.00;;;;5052243;27;82319;-60
2022/06/01 08:19:34;;;;;;;8.73;3.17;;;23.80;99.90;31.60;99218.00;;;;5052301;27;82996;-60
2022/06/01 08:22:00;;;;;;;8.23;3.10;;;24.10;99.90;31.60;99224.00;;;;5034563;27;83322;-60
2022/06/01 08:24:27;;;;;;;7.28;2.53;;;24.20;99.90;31.70;99224.00;;;;5051802;27;82926;-61
2022/06/01 08:26:56;;;;;;;9.05;2.78;;;24.40;99.90;31.50;99235.00;;;;5052563;27;83093;-61
2022/06/01 08:29:22;;;;;;;9.57;3.45;;;24.30;99.90;31.40;99230.00;;;;5051540;27;82053;-60
2022/06/01 08:31:48;;;;;;;16.42;3.40;;;24.20;99.90;31.60;99232.00;;;;5051735;27;82458;-63
2022/06/01 08:34:16;;;;;;;5.32;2.90;;;24.50;99.90;31.60;99229.00;;;;5052167;27;83083;-63
2022/06/01 08:36:42;;;;;;;9.02;2.90;;;24.50;99.90;31.80;99227.00;;;;5052576;27;82809;-63
2022/06/01 08:39:08;;;;;;;5.03;3.15;;;24.70;99.90;31.70;99234.00;;;;5053001;27;82749;-63
2022/06/01 08:41:37;;;;;;;7.72;3.22;;;24.60;99.90;31.80;99226.00;;;;5051403;27;82350;-63
2022/06/01 08:44:24;;;;;;;9.45;2.95;;;24.60;99.90;31.30;99230.00;;;;5051229;27;83222;-64
2022/06/01 08:46:52;;;;;;;8.13;2.85;;;24.20;99.90;31.30;99230.00;;;;5051099;27;83052;-64
2022/06/01 08:49:33;;;;;;;5.15;2.85;;;24.40;99.90;31.40;99221.00;;;;5034572;27;83844;-64
2022/06/01 08:51:59;;;;;;;7.68;2.90;;;24.50;99.90;31.70;99212.00;;;;5052797;27;83324;-63
2022/06/01 08:54:25;;;;;;;5.60;2.30;;;24.80;99.90;32.20;99223.00;;;;5034518;27;82867;-63
2022/06/01 08:56:59;;;;;;;11.30;3.50;;;25.10;99.90;32.00;99222.00;;;;5053000;27;82976;-64
2022/06/01 08:59:41;;;;;;;12.73;3.50;;;25.40;99.90;32.30;99223.00;;;;5034574;27;82390;-63
2022/06/01 09:02:22;;;;;;;6.65;3.20;;;25.40;99.90;32.00;99225.00;;;;5051986;27;82998;-64
2022/06/01 09:04:49;;;;;;;;;;;25.10;99.90;32.10;99230.00;;;;5052336;27;83129;-64
2022/06/01 09:07:40;;;;;;;12.52;3.45;;;25.10;99.90;32.60;99240.00;;;;5033774;27;82211;-63
2022/06/01 09:10:36;;;;;;;4.27;2.63;;;25.40;99.90;32.80;99228.00;;;;5034411;27;82027;-64
2022/06/01 09:13:12;;;;;;;8.38;3.15;;;25.60;99.90;33.10;99220.00;;;;5052472;27;82585;-64
2022/06/01 09:15:55;;;;;;;8.10;2.90;;;25.80;99.90;32.90;99237.00;;;;5050835;27;84916;-64
2022/06/01 09:18:28;;;;;;;7.50;3.03;;;25.80;99.90;32.30;99240.00;;;;5042089;27;83237;-64
2022/06/01 09:23:42;;;;;;;11.77;3.15;;;25.00;99.90;31.20;99237.00;;;;5052072;27;82100;-64
2022/06/01 09:26:22;;;;;;;11.65;3.20;;;24.60;99.90;30.70;99237.00;;;;5051391;27;82774;-64
2022/06/01 09:28:58;;;;;;;11.55;3.08;;;24.20;99.90;30.50;99233.00;;;;5024015;27;84509;-64
2022/06/01 09:31:36;;;;;;;8.80;2.80;;;24.10;99.90;31.10;99235.00;;;;5051541;27;82965;-65
2022/06/01 09:34:27;;;;;;;10.20;2.13;;;24.10;99.90;31.30;99239.00;;;;5051653;27;82160;-64
2022/06/01 09:37:27;;;;;;;6.35;2.40;;;24.20;99.90;31.70;99233.00;;;;5034047;27;82381;-64
2022/06/01 09:40:04;;;;;;;7.45;2.50;;;24.80;99.90;32.10;99231.00;;;;5047168;27;83479;-64
2022/06/01 09:42:42;;;;;;;6.20;2.30;;;;;31.90;99241.00;;;;5051669;27;83344;-64
2022/06/01 09:45:34;;;;;;;7.80;2.60;;;25.20;99.90;31.60;99236.00;;;;5033285;27;84399;-63
2022/06/01 09:48:28;;;;;;;5.47;2.80;;;25.00;99.90;31.60;99236.00;;;;5033347;27;83810;-64
2022/06/01 09:51:21;;;;;;;5.93;2.35;;;25.00;99.90;31.60;99226.00;;;;5052398;27;82694;-63
2022/06/01 09:54:08;;;;;;;7.18;2.80;;;25.00;99.90;31.30;99240.00;;;;5039140;27;82991;-64
2022/06/01 09:56:47;;;;;;;8.48;2.95;;;25.10;99.90;31.20;99231.00;;;;5051204;27;82374;-64
2022/06/01 10:08:15;;;;;;;5.85;2.92;;;25.20;99.90;31.50;99237.00;;;;5050559;27;82200;-63
2022/06/01 10:11:01;;;;;;;7.85;3.20;;;25.10;99.90;31.30;99226.00;;;;5049479;27;84666;-65
2022/06/01 10:13:53;;;;;;;8.50;3.10;;;25.20;99.90;31.40;99230.00;;;;5050034;27;83081;-64
2022/06/01 10:16:28;;;;;;;11.63;3.70;;;25.00;99.90;31.40;99236.00;;;;5021867;27;81992;-63
2022/06/01 10:18:57;;;;;;;9.20;2.90;;;24.90;99.90;31.20;99234.00;;;;5049568;27;82716;-63
2022/06/01 10:21:29;;;;;;;7.32;2.65;;;25.10;99.90;31.60;99231.00;;;;5050276;27;82927;-64
2022/06/01 10:24:08;;;;;;;9.43;2.83;;;25.20;99.90;31.80;99239.00;;;;5031417;27;83089;-63
2022/06/01 10:26:38;;;;;;;8.80;2.92;;;25.00;99.90;31.60;99231.00;;;;5032101;27;82395;-63
2022/06/01 10:29:15;;;;;;;6.00;3.50;;;24.90;99.90;31.50;99237.00;;;;5050959;27;82133;-62
2022/06/01 10:32:10;;;;;;;10.60;3.78;;;25.00;99.90;31.80;99237.00;;;;5031491;28;83173;-63
2022/06/01 10:34:45;;;;;;;10.38;3.85;;;;;31.50;99242.00;;;;5029097;27;82887;-64
2022/06/01 10:37:42;;;;;;;12.77;4.55;;;25.20;99.90;31.70;99246.00;;;;5050539;27;83793;-63
2022/06/01 10:40:20;;;;;;;11.77;4.75;;;25.20;99.90;31.70;99242.00;;;;5032627;27;83005;-63
2022/06/01 10:43:17;;;;;;;9.85;3.65;;;25.10;99.90;31.30;99246.00;;;;5050820;27;81944;-63
2022/06/01 10:45:52;;;;;;;7.93;4.20;;;25.00;99.90;31.20;99242.00;;;;5032468;27;83108;-63
2022/06/01 10:48:40;;;;;;;7.30;4.53;;;24.90;99.90;31.30;99254.00;;;;5023863;27;82829;-63
2022/06/01 10:51:26;;;;;;;11.07;4.35;;;25.00;99.90;31.60;99254.00;;;;5034024;27;82961;-67
2022/06/01 10:54:31;;;;;;;9.60;4.03;;;25.00;99.90;31.50;99262.00;;;;5031883;27;82722;-63
2022/06/01 10:56:58;;;;;;;7.78;3.78;;;;;31.00;99248.00;;;;5010978;27;82472;-63
2022/06/01 10:59:25;;;;;;;9.35;2.90;;;;;31.20;99249.00;;;;5016220;27;83003;-61
2022/06/01 11:02:29;;;;;;;4.95;2.80;;;25.00;99.90;31.40;99258.00;;;;5049391;27;83488;-61
2022/06/01 11:05:44;;;;;;;5.25;2.55;;;24.90;99.90;31.30;99265.00;;;;5021502;27;84198;-62
2022/06/01 11:08:37;;;;;;;5.05;2.65;;;24.80;99.90;31.20;99260.00;;;;5045441;27;83565;-63
2022/06/01 11:11:50;;;;;;;6.03;2.50;;;24.80;99.90;31.20;99251.00;;;;5048865;27;82764;-62
2022/06/01 11:14:28;;;;;;;4.38;2.63;;;;;30.80;99252.00;;;;5032411;27;83122;-62
2022/06/01 11:17:09;;;;;;;5.85;2.40;;;24.80;99.90;31.20;99251.00;;;;5029961;27;83224;-63
2022/06/01 11:20:14;;;;;;;6.43;2.30;;;24.60;99.90;31.20;99260.00;;;;5046877;27;82704;-62
2022/06/01 11:23:28;;;;;;;4.50;2.22;;;24.50;99.90;31.00;99259.00;;;;5032151;27;82773;-64
2022/06/01 11:26:26;;;;;;;7.03;2.65;;;24.10;99.90;30.50;99250.00;;;;5006836;27;84965;-62
2022/06/01 11:29:24;;;;;;;5.75;2.88;;;;;30.40;99262.00;;;;5049942;27;82713;-60
2022/06/01 11:31:52;;;;;;;5.00;2.92;;;;;30.10;99264.00;;;;5044502;27;82543;-62
2022/06/01 11:34:53;;;;;;;8.98;2.90;;;23.70;99.90;30.30;99255.00;;;;5058707;27;82793;-63
2022/06/01 11:37:36;;;;;;;5.68;2.92;;;23.70;99.90;29.90;99245.00;;;;4969175;27;83751;-60
2022/06/01 11:40:06;;;;;;;6.78;3.25;;;;;29.30;99253.00;;;;5043124;28;82067;-61
2022/06/01 11:42:40;;;;;;;8.27;3.00;;;23.40;99.90;29.80;99260.00;;;;5048387;27;82227;-61
2022/06/01 11:45:59;;;;;;;5.75;2.33;;;23.30;99.90;30.10;99264.00;;;;5041713;27;82179;-58
2022/06/01 11:48:38;;;;;;;7.32;2.05;;;23.40;99.90;29.80;99267.00;;;;5022692;27;82410;-52